Time;durP1;ratioP1;P1;durP2;ratioP2;P2;SDS_P1;SDS_P2;PMS_P1;PMS_P2;Temp;Humidity;BMP_temperature;BMP_pressure;BME280_temperature;BME280_humidity;BME280_pressure;Samples;Min_cycle;Max_cycle;Signal;HPM_P1;HPM_P2
2021/09/26 00:01:46;;;;;;;4.28;2.42;;;21.50;68.20;;;;;;2561563;53;21883;-71
2021/09/26 00:04:12;;;;;;;3.85;2.30;;;21.50;68.20;;;;;;2561935;52;20990;-71
2021/09/26 00:06:39;;;;;;;5.05;2.45;;;21.50;68.20;;;;;;2553425;52;20978;-71
2021/09/26 00:09:05;;;;;;;4.00;2.35;;;21.50;68.10;;;;;;2324847;54;21052;-74
2021/09/26 00:11:31;;;;;;;5.18;2.55;;;21.50;68.20;;;;;;2552453;52;21515;-72
2021/09/26 00:13:59;;;;;;;4.22;2.65;;;21.50;68.20;;;;;;2327265;54;21339;-72
2021/09/26 00:16:30;;;;;;;4.40;2.80;;;21.40;68.10;;;;;;2441017;52;20983;-71
2021/09/26 00:18:58;;;;;;;4.05;2.28;;;21.40;68.10;;;;;;2560945;52;20984;-71
2021/09/26 00:21:24;;;;;;;3.87;2.12;;;21.40;68.30;;;;;;2558611;52;22393;-77
2021/09/26 00:23:53;;;;;;;5.12;2.35;;;21.40;68.40;;;;;;2386182;53;20974;-71
2021/09/26 00:26:20;;;;;;;3.45;2.08;;;21.40;68.40;;;;;;2322599;54;21278;-71
2021/09/26 00:28:46;;;;;;;5.82;2.28;;;21.40;68.40;;;;;;2326758;54;20959;-71
2021/09/26 00:31:12;;;;;;;3.80;2.40;;;21.40;68.40;;;;;;2320084;54;20946;-71
2021/09/26 00:33:38;;;;;;;4.10;2.12;;;21.30;68.20;;;;;;2322052;54;21039;-71
2021/09/26 00:36:05;;;;;;;4.00;2.17;;;21.30;68.10;;;;;;2322772;54;21109;-71
2021/09/26 00:38:33;;;;;;;3.70;2.12;;;21.30;68.10;;;;;;2320514;54;20967;-75
2021/09/26 00:40:59;;;;;;;3.95;2.45;;;21.30;68.10;;;;;;2341203;54;21737;-70
2021/09/26 00:43:26;;;;;;;5.22;2.65;;;21.30;68.10;;;;;;2324799;54;20969;-71
2021/09/26 00:45:57;;;;;;;4.12;1.95;;;21.30;68.10;;;;;;2327704;54;21022;-71
2021/09/26 00:48:23;;;;;;;4.45;2.72;;;21.20;68.70;;;;;;2325331;54;20942;-74
2021/09/26 00:50:51;;;;;;;4.10;2.60;;;21.20;68.10;;;;;;2318037;54;21012;-74
2021/09/26 00:53:18;;;;;;;3.85;2.20;;;21.20;68.20;;;;;;2329952;54;21858;-70
2021/09/26 00:55:46;;;;;;;5.87;2.58;;;21.10;68.10;;;;;;2327579;54;21462;-71
2021/09/26 00:58:12;;;;;;;3.80;2.30;;;21.10;68.00;;;;;;2314830;54;20950;-71
2021/09/26 01:00:38;;;;;;;4.22;2.45;;;21.10;68.00;;;;;;2562657;52;20951;-70
2021/09/26 01:03:05;;;;;;;4.78;2.50;;;21.10;68.00;;;;;;2321537;54;21877;-75
2021/09/26 01:05:31;;;;;;;4.97;2.17;;;21.00;67.80;;;;;;2327524;54;21033;-72
2021/09/26 01:09:08;;;;;;;4.82;2.40;;;21.00;67.80;;;;;;2548920;52;21011;-71
2021/09/26 01:13:19;;;;;;;3.25;2.08;;;21.00;67.50;;;;;;2554468;53;20995;-70
2021/09/26 01:16:06;;;;;;;3.10;1.73;;;20.90;67.50;;;;;;2328664;54;20947;-75
2021/09/26 01:21:45;;;;;;;3.62;2.08;;;20.90;67.70;;;;;;2327435;54;21942;-71
2021/09/26 01:25:42;;;;;;;3.55;1.83;;;20.80;67.50;;;;;;2322867;54;21006;-70
2021/09/26 01:29:51;;;;;;;3.28;1.80;;;20.80;67.70;;;;;;2322565;54;20935;-71
2021/09/26 01:32:18;;;;;;;3.72;1.95;;;20.80;67.80;;;;;;2331382;54;21027;-71
2021/09/26 01:34:48;;;;;;;6.55;2.12;;;20.70;67.80;;;;;;2325650;54;20987;-70
2021/09/26 01:37:26;;;;;;;3.95;2.30;;;20.70;67.80;;;;;;2338841;54;20924;-74
2021/09/26 01:40:24;;;;;;;3.90;2.42;;;20.60;67.70;;;;;;2325765;54;20991;-73
2021/09/26 01:42:56;;;;;;;3.20;1.90;;;20.60;67.70;;;;;;2328088;54;21006;-71
2021/09/26 01:45:42;;;;;;;3.80;2.20;;;20.50;67.80;;;;;;2324256;54;21462;-71
2021/09/26 01:48:14;;;;;;;4.18;1.62;;;20.50;67.80;;;;;;2318928;54;20991;-74
2021/09/26 01:50:41;;;;;;;3.42;1.98;;;20.40;67.90;;;;;;2318591;54;20927;-71
2021/09/26 01:53:08;;;;;;;3.25;1.80;;;20.40;68.00;;;;;;2442452;52;21035;-75
2021/09/26 01:55:35;;;;;;;4.05;2.45;;;20.40;68.00;;;;;;2552324;52;20966;-70
2021/09/26 01:58:02;;;;;;;5.25;2.37;;;20.30;67.90;;;;;;2326602;54;20935;-70
2021/09/26 02:00:28;;;;;;;4.70;2.65;;;20.30;68.00;;;;;;2320378;54;21010;-72
2021/09/26 02:02:55;;;;;;;4.15;2.55;;;20.30;68.00;;;;;;2325813;54;20974;-70
2021/09/26 02:05:21;;;;;;;3.58;2.33;;;20.20;67.80;;;;;;2324227;54;21337;-70
2021/09/26 02:07:49;;;;;;;4.37;2.47;;;20.20;67.80;;;;;;2317812;54;21757;-75
2021/09/26 02:10:18;;;;;;;3.65;2.12;;;20.20;67.90;;;;;;2317153;54;21298;-72
2021/09/26 02:12:45;;;;;;;4.57;2.25;;;20.20;67.90;;;;;;2315125;54;20963;-72
2021/09/26 02:15:16;;;;;;;3.78;1.98;;;20.10;67.80;;;;;;2319928;54;20970;-74
2021/09/26 02:17:44;;;;;;;5.57;2.50;;;20.10;67.80;;;;;;2499810;52;20975;-71
2021/09/26 02:20:10;;;;;;;4.40;2.62;;;20.00;67.70;;;;;;2329529;54;20944;-71
2021/09/26 02:22:37;;;;;;;4.60;2.53;;;20.00;67.80;;;;;;2330171;54;21030;-71
2021/09/26 02:25:05;;;;;;;4.75;2.22;;;20.00;68.00;;;;;;2331100;54;21054;-69
2021/09/26 02:27:35;;;;;;;3.97;2.25;;;19.90;67.90;;;;;;2314703;54;20968;-70
2021/09/26 02:30:02;;;;;;;4.00;2.50;;;19.90;68.00;;;;;;2322275;54;21056;-72
2021/09/26 02:32:28;;;;;;;4.07;2.20;;;19.90;68.10;;;;;;2325175;54;21444;-70
2021/09/26 02:34:55;;;;;;;3.25;1.80;;;19.90;68.20;;;;;;2321726;54;21099;-70
2021/09/26 02:37:22;;;;;;;4.62;2.25;;;19.80;68.10;;;;;;2321502;54;21054;-75
2021/09/26 02:39:48;;;;;;;4.85;2.22;;;19.80;68.20;;;;;;2328419;54;20955;-71
2021/09/26 02:42:40;;;;;;;5.10;2.70;;;19.80;68.20;;;;;;2326853;54;21058;-72
2021/09/26 02:46:38;;;;;;;4.85;2.70;;;19.80;68.20;;;;;;2555391;52;20942;-71
2021/09/26 02:49:05;;;;;;;3.53;1.98;;;19.70;68.10;;;;;;2321926;54;21015;-71
2021/09/26 02:51:33;;;;;;;3.37;2.03;;;19.70;68.00;;;;;;2327095;54;20934;-74
2021/09/26 02:54:00;;;;;;;4.18;1.95;;;19.70;68.00;;;;;;2324960;54;21043;-71
2021/09/26 02:56:27;;;;;;;3.97;1.92;;;19.70;68.10;;;;;;2312573;54;20969;-70
2021/09/26 02:58:54;;;;;;;3.87;2.28;;;19.60;68.10;;;;;;2321242;54;21773;-71
2021/09/26 03:01:22;;;;;;;3.85;1.80;;;19.60;68.10;;;;;;2337135;54;20987;-70
2021/09/26 03:03:48;;;;;;;4.00;2.33;;;19.60;68.20;;;;;;2327336;54;20953;-71
2021/09/26 03:06:15;;;;;;;3.60;2.22;;;19.60;68.20;;;;;;2324817;54;20996;-72
2021/09/26 03:08:42;;;;;;;5.07;2.40;;;19.50;68.20;;;;;;2334052;54;20947;-70
2021/09/26 03:11:09;;;;;;;4.65;2.55;;;19.50;68.20;;;;;;2322786;54;20948;-77
2021/09/26 03:13:41;;;;;;;4.50;2.45;;;19.50;68.20;;;;;;2323646;54;20939;-70
2021/09/26 03:16:08;;;;;;;3.40;1.98;;;19.50;68.20;;;;;;2328242;54;21050;-70
2021/09/26 03:18:35;;;;;;;4.60;2.55;;;19.40;68.10;;;;;;2319938;54;21010;-71
2021/09/26 03:21:01;;;;;;;3.85;2.25;;;19.50;68.30;;;;;;2324748;53;21027;-71
2021/09/26 03:23:28;;;;;;;3.90;2.40;;;19.40;68.20;;;;;;2322922;54;20939;-68
2021/09/26 03:25:55;;;;;;;3.83;2.12;;;19.40;68.20;;;;;;2329158;54;20931;-70
2021/09/26 03:28:21;;;;;;;5.05;2.40;;;19.30;68.20;;;;;;2328468;54;20933;-70
2021/09/26 03:30:47;;;;;;;4.12;2.08;;;19.30;68.20;;;;;;2566223;52;20947;-73
2021/09/26 03:33:18;;;;;;;3.83;2.08;;;19.30;68.20;;;;;;2323778;54;21769;-70
2021/09/26 03:35:47;;;;;;;3.85;2.08;;;19.30;68.20;;;;;;2322364;54;20976;-73
2021/09/26 03:38:15;;;;;;;3.08;1.80;;;19.30;68.20;;;;;;2329897;54;20999;-70
2021/09/26 03:40:42;;;;;;;3.55;1.85;;;19.20;68.00;;;;;;2552591;52;21073;-71
2021/09/26 03:43:08;;;;;;;5.22;2.40;;;19.20;68.10;;;;;;2335075;54;20975;-71
2021/09/26 03:45:34;;;;;;;4.22;2.22;;;19.20;68.10;;;;;;2327113;54;20932;-69
2021/09/26 03:48:01;;;;;;;3.20;1.92;;;19.20;68.20;;;;;;2328763;54;21528;-71
2021/09/26 03:50:27;;;;;;;3.83;1.80;;;19.10;68.10;;;;;;2382920;53;20967;-71
2021/09/26 03:52:54;;;;;;;4.53;2.25;;;19.10;68.10;;;;;;2479979;52;20971;-77
2021/09/26 03:55:20;;;;;;;5.25;2.90;;;19.10;68.10;;;;;;2326138;54;20950;-69
2021/09/26 03:57:46;;;;;;;7.68;3.40;;;19.10;68.20;;;;;;2322064;54;20983;-72
2021/09/26 04:00:14;;;;;;;5.50;2.97;;;19.00;68.10;;;;;;2322814;54;21023;-74
2021/09/26 04:02:41;;;;;;;5.35;2.58;;;19.00;68.10;;;;;;2329490;54;20986;-71
2021/09/26 04:05:07;;;;;;;5.20;3.10;;;19.00;68.10;;;;;;2331210;54;21530;-74
2021/09/26 04:07:34;;;;;;;6.53;3.00;;;19.00;68.20;;;;;;2340857;54;21616;-71
2021/09/26 04:10:00;;;;;;;5.90;2.87;;;18.90;68.10;;;;;;2329043;54;20987;-70
2021/09/26 04:12:27;;;;;;;4.78;2.75;;;18.90;68.20;;;;;;2327216;54;20971;-70
2021/09/26 04:14:53;;;;;;;5.03;2.70;;;18.90;68.30;;;;;;2555334;52;21786;-75
2021/09/26 04:17:20;;;;;;;5.55;2.47;;;18.90;68.30;;;;;;2554633;53;20934;-71
2021/09/26 04:19:49;;;;;;;6.70;2.75;;;18.80;68.20;;;;;;2552665;52;21796;-75
2021/09/26 04:22:16;;;;;;;4.93;2.45;;;18.90;68.40;;;;;;2316962;54;21062;-70
2021/09/26 04:24:43;;;;;;;5.18;2.58;;;18.90;68.40;;;;;;2325883;54;20948;-70
2021/09/26 04:27:09;;;;;;;5.40;2.67;;;18.80;68.30;;;;;;2318602;54;21027;-72
2021/09/26 04:29:36;;;;;;;5.60;2.87;;;18.80;68.30;;;;;;2323707;54;20959;-70
2021/09/26 04:32:03;;;;;;;4.50;2.53;;;18.80;68.40;;;;;;2338371;54;21058;-70
2021/09/26 04:34:29;;;;;;;4.97;2.60;;;18.80;68.50;;;;;;2320969;54;20963;-71
2021/09/26 04:36:56;;;;;;;5.68;2.95;;;18.80;69.20;;;;;;2436902;53;20987;-71
2021/09/26 04:39:22;;;;;;;4.87;2.33;;;18.80;68.50;;;;;;2504380;52;20950;-71
2021/09/26 04:41:49;;;;;;;4.60;2.45;;;18.70;68.50;;;;;;2328007;54;21011;-74
2021/09/26 04:44:15;;;;;;;4.95;2.67;;;18.70;68.50;;;;;;2339003;54;21523;-73
2021/09/26 04:46:42;;;;;;;5.00;2.37;;;18.70;68.60;;;;;;2326197;54;21488;-71
2021/09/26 04:49:09;;;;;;;4.10;2.28;;;18.70;69.40;;;;;;2367373;52;21033;-71
2021/09/26 04:51:35;;;;;;;5.15;2.03;;;18.70;68.80;;;;;;2328473;54;21369;-70
2021/09/26 04:54:02;;;;;;;4.43;2.57;;;18.70;68.80;;;;;;2303647;54;1297969;-71
2021/09/26 04:56:29;;;;;;;4.97;2.85;;;18.70;68.90;;;;;;2326129;54;21119;-71
2021/09/26 04:58:55;;;;;;;4.00;2.37;;;18.70;68.90;;;;;;2555566;52;21985;-70
2021/09/26 05:01:22;;;;;;;5.15;2.85;;;18.70;68.90;;;;;;2403917;53;21751;-71
2021/09/26 05:03:49;;;;;;;3.62;2.00;;;18.70;68.90;;;;;;2318243;54;20979;-71
2021/09/26 05:06:16;;;;;;;4.03;2.20;;;18.70;69.00;;;;;;2320962;54;20994;-70
2021/09/26 05:08:43;;;;;;;4.57;2.30;;;18.70;69.00;;;;;;2334715;54;20939;-71
2021/09/26 05:11:09;;;;;;;5.22;2.70;;;18.80;69.20;;;;;;2321149;54;21026;-75
2021/09/26 05:13:36;;;;;;;4.28;2.80;;;18.80;69.20;;;;;;2303929;55;20959;-74
2021/09/26 05:16:02;;;;;;;4.20;2.40;;;18.70;69.20;;;;;;2325252;54;20942;-70
2021/09/26 05:18:30;;;;;;;3.75;2.42;;;18.80;69.40;;;;;;2323227;54;21213;-73
2021/09/26 05:20:57;;;;;;;5.62;2.45;;;18.80;69.50;;;;;;2334995;54;21439;-70
2021/09/26 05:23:23;;;;;;;4.03;2.42;;;18.80;69.60;;;;;;2341624;55;21287;-71
2021/09/26 05:25:50;;;;;;;4.35;2.58;;;18.80;69.70;;;;;;2323261;54;21042;-71
2021/09/26 05:28:16;;;;;;;4.10;2.70;;;18.90;70.00;;;;;;2343196;55;21605;-71
2021/09/26 05:30:44;;;;;;;3.87;2.35;;;18.80;70.10;;;;;;2562910;52;20951;-71
2021/09/26 05:33:10;;;;;;;4.65;2.42;;;18.90;70.50;;;;;;2329198;54;21735;-71
2021/09/26 05:35:36;;;;;;;5.87;2.97;;;18.90;70.70;;;;;;2332110;53;21004;-71
2021/09/26 05:38:03;;;;;;;4.20;2.70;;;19.00;71.00;;;;;;2356036;53;20964;-70
2021/09/26 05:40:29;;;;;;;5.65;2.62;;;19.10;71.40;;;;;;2322683;54;20944;-70
2021/09/26 05:42:55;;;;;;;3.92;2.55;;;19.20;71.60;;;;;;2565763;53;20943;-71
2021/09/26 05:45:22;;;;;;;4.12;2.35;;;19.20;71.80;;;;;;2320626;54;21015;-76
2021/09/26 05:47:48;;;;;;;4.22;2.58;;;19.30;72.10;;;;;;2562424;52;20934;-73
2021/09/26 05:50:14;;;;;;;4.00;2.37;;;19.40;72.20;;;;;;2327278;54;20939;-70
2021/09/26 05:52:43;;;;;;;4.57;2.45;;;19.50;72.40;;;;;;2328257;54;20986;-71
2021/09/26 05:55:10;;;;;;;4.53;2.62;;;19.60;72.50;;;;;;2328284;53;21488;-75
2021/09/26 05:57:38;;;;;;;4.50;2.50;;;19.70;72.60;;;;;;2556481;52;21565;-77
2021/09/26 06:00:05;;;;;;;4.30;2.40;;;19.70;72.60;;;;;;2329468;54;20976;-76
2021/09/26 06:02:33;;;;;;;4.95;2.92;;;19.80;72.60;;;;;;2341833;55;21729;-75
2021/09/26 06:05:00;;;;;;;5.70;2.53;;;19.90;72.60;;;;;;2586026;53;20940;-75
2021/09/26 06:07:26;;;;;;;4.37;2.45;;;20.00;72.60;;;;;;2317737;54;21023;-72
2021/09/26 06:09:53;;;;;;;4.45;2.67;;;20.10;72.70;;;;;;2556099;53;20926;-70
2021/09/26 06:12:20;;;;;;;7.62;3.15;;;20.10;72.60;;;;;;2326000;54;21404;-70
2021/09/26 06:14:46;;;;;;;5.20;2.87;;;20.20;72.60;;;;;;2576805;52;21847;-73
2021/09/26 06:17:13;;;;;;;5.20;2.75;;;20.30;72.70;;;;;;2323594;55;21467;-70
2021/09/26 06:19:39;;;;;;;5.30;3.00;;;20.40;72.80;;;;;;2554093;52;20983;-71
2021/09/26 06:22:06;;;;;;;5.28;2.72;;;20.40;72.70;;;;;;2554482;52;21003;-70
2021/09/26 06:24:32;;;;;;;5.87;3.25;;;20.50;72.70;;;;;;2526854;52;21018;-74
2021/09/26 06:26:58;;;;;;;5.90;2.97;;;20.50;72.60;;;;;;2524172;52;21026;-70
2021/09/26 06:29:25;;;;;;;5.70;2.90;;;20.60;72.70;;;;;;2323861;54;21018;-70
2021/09/26 06:31:52;;;;;;;8.25;3.30;;;20.70;72.60;;;;;;2321329;54;21530;-69
2021/09/26 06:34:21;;;;;;;4.47;2.92;;;20.70;72.50;;;;;;2330544;54;20943;-70
2021/09/26 06:36:47;;;;;;;5.40;3.30;;;20.80;72.50;;;;;;2568692;53;21890;-70
2021/09/26 06:42:42;;;;;;;5.05;2.97;;;20.90;72.40;;;;;;2513294;53;21030;-74
2021/09/26 06:45:09;;;;;;;6.12;3.53;;;20.90;72.30;;;;;;2319488;54;21117;-71
2021/09/26 06:47:35;;;;;;;5.65;3.30;;;21.00;72.40;;;;;;2324686;54;21026;-70
2021/09/26 06:50:04;;;;;;;9.40;6.43;;;21.00;72.30;;;;;;2333836;54;20937;-70
2021/09/26 06:52:33;;;;;;;12.60;7.75;;;21.10;72.40;;;;;;2320259;54;20955;-71
2021/09/26 06:55:00;;;;;;;10.27;6.20;;;21.20;72.30;;;;;;2305686;54;20963;-70
2021/09/26 06:57:27;;;;;;;7.45;5.20;;;21.20;72.30;;;;;;2560580;52;21028;-73
2021/09/26 06:59:54;;;;;;;7.07;4.20;;;21.20;72.20;;;;;;2331143;53;20965;-71
2021/09/26 07:02:24;;;;;;;7.15;4.05;;;21.30;72.20;;;;;;2527859;53;21837;-71
2021/09/26 07:04:50;;;;;;;5.30;3.22;;;21.30;72.20;;;;;;2323854;54;21547;-70
2021/09/26 07:07:17;;;;;;;6.55;3.17;;;21.30;72.20;;;;;;2323329;54;20959;-70
2021/09/26 07:09:44;;;;;;;5.20;3.50;;;21.40;72.20;;;;;;2333223;53;20939;-70
2021/09/26 07:12:10;;;;;;;5.05;3.30;;;21.40;72.20;;;;;;2331792;54;21023;-71
2021/09/26 07:14:36;;;;;;;7.90;3.70;;;21.40;72.90;;;;;;2327318;54;21406;-75
2021/09/26 07:17:03;;;;;;;7.00;3.60;;;21.50;72.30;;;;;;2333977;54;20943;-69
2021/09/26 07:19:33;;;;;;;8.00;3.72;;;21.50;72.30;;;;;;2333863;54;20952;-70
2021/09/26 07:22:04;;;;;;;4.72;3.08;;;21.50;72.20;;;;;;2326158;54;20955;-69
2021/09/26 07:24:33;;;;;;;5.60;3.37;;;21.60;72.30;;;;;;2322112;54;21011;-69
2021/09/26 07:27:04;;;;;;;6.07;3.47;;;21.60;72.20;;;;;;2376663;53;21866;-70
2021/09/26 07:29:34;;;;;;;4.57;3.28;;;21.60;72.20;;;;;;2327911;54;21732;-73
2021/09/26 07:32:05;;;;;;;6.53;3.22;;;21.70;72.30;;;;;;2328335;54;20987;-69
2021/09/26 07:34:32;;;;;;;7.18;3.22;;;21.70;72.20;;;;;;2322509;54;20931;-71
2021/09/26 07:37:00;;;;;;;5.40;3.83;;;21.70;72.10;;;;;;2450738;52;21000;-74
2021/09/26 07:39:31;;;;;;;5.87;4.05;;;21.70;72.00;;;;;;2327180;54;20979;-70
2021/09/26 07:41:57;;;;;;;6.22;3.80;;;21.70;72.00;;;;;;2519469;53;21038;-70
2021/09/26 07:44:25;;;;;;;7.12;4.05;;;21.80;71.70;;;;;;2554558;52;21058;-71
2021/09/26 07:46:52;;;;;;;6.75;4.32;;;21.80;72.00;;;;;;2323731;54;21526;-73
2021/09/26 07:49:18;;;;;;;8.10;4.57;;;21.80;71.90;;;;;;2328637;54;20915;-72
2021/09/26 07:51:45;;;;;;;7.35;4.50;;;21.80;71.90;;;;;;2303625;54;20927;-71
2021/09/26 07:54:16;;;;;;;10.38;5.28;;;21.80;71.70;;;;;;2553381;52;21019;-70
2021/09/26 07:56:45;;;;;;;8.75;5.32;;;21.90;71.80;;;;;;2325377;54;21000;-71
2021/09/26 07:59:14;;;;;;;8.75;5.57;;;21.90;71.60;;;;;;2323552;54;20948;-76
2021/09/26 08:01:40;;;;;;;7.90;5.72;;;21.90;71.60;;;;;;2535884;53;20963;-70
2021/09/26 08:04:08;;;;;;;9.38;5.43;;;21.90;71.50;;;;;;2323575;54;20970;-68
2021/09/26 08:07:02;;;;;;;7.22;4.68;;;21.90;71.40;;;;;;2335225;57;21032;-71
2021/09/26 08:09:28;;;;;;;7.18;4.12;;;22.00;71.30;;;;;;2335099;53;20998;-70
2021/09/26 08:11:56;;;;;;;7.43;4.07;;;21.90;71.10;;;;;;2447917;52;21997;-71
2021/09/26 08:14:23;;;;;;;5.50;4.30;;;21.90;71.00;;;;;;2320619;54;21014;-73
2021/09/26 08:16:49;;;;;;;6.62;4.22;;;21.90;70.90;;;;;;2334632;53;21923;-71
2021/09/26 08:19:17;;;;;;;6.95;4.57;;;21.80;70.80;;;;;;2373512;53;20978;-70
2021/09/26 08:21:45;;;;;;;6.18;4.55;;;21.80;70.80;;;;;;2367156;53;21082;-70
2021/09/26 08:24:11;;;;;;;7.93;4.93;;;21.70;70.80;;;;;;2322983;54;21063;-72
2021/09/26 08:26:37;;;;;;;10.02;5.07;;;21.70;70.90;;;;;;2407845;52;21007;-70
2021/09/26 08:29:04;;;;;;;8.13;5.35;;;21.70;71.10;;;;;;2321992;54;20994;-70
2021/09/26 08:31:31;;;;;;;7.12;4.65;;;21.70;71.30;;;;;;2378001;52;20971;-71
2021/09/26 08:33:58;;;;;;;6.50;4.70;;;21.60;71.30;;;;;;2324309;54;20975;-71
2021/09/26 08:36:24;;;;;;;6.37;4.47;;;21.60;71.50;;;;;;2399524;52;21043;-70
2021/09/26 08:38:51;;;;;;;7.18;5.32;;;21.60;71.70;;;;;;2340324;54;21775;-70
2021/09/26 08:41:17;;;;;;;6.87;5.25;;;21.60;71.80;;;;;;2326860;54;21026;-72
2021/09/26 08:43:47;;;;;;;8.13;5.87;;;21.60;71.90;;;;;;2327111;54;20991;-70
2021/09/26 08:46:14;;;;;;;8.35;6.18;;;21.70;72.10;;;;;;2319774;54;22074;-75
2021/09/26 08:48:40;;;;;;;7.12;5.53;;;21.70;72.10;;;;;;2333112;54;21993;-72
2021/09/26 08:51:09;;;;;;;6.80;5.32;;;21.70;72.10;;;;;;2331886;54;21011;-72
2021/09/26 08:53:36;;;;;;;6.70;5.05;;;21.70;72.10;;;;;;2326860;54;21000;-72
2021/09/26 08:56:02;;;;;;;9.40;5.60;;;21.70;72.20;;;;;;2552868;53;21126;-72
2021/09/26 08:58:29;;;;;;;7.00;5.30;;;21.80;72.40;;;;;;2315492;54;20935;-72
2021/09/26 09:00:55;;;;;;;6.85;4.97;;;21.80;72.60;;;;;;2346641;52;21014;-73
2021/09/26 09:03:24;;;;;;;6.62;5.62;;;21.90;72.90;;;;;;2322343;54;21015;-71
2021/09/26 09:05:51;;;;;;;7.60;4.60;;;22.00;73.10;;;;;;2506333;52;20991;-71
2021/09/26 09:08:22;;;;;;;7.30;5.37;;;22.00;73.30;;;;;;2313615;54;22000;-72
2021/09/26 09:10:53;;;;;;;6.30;4.90;;;22.10;73.50;;;;;;2432378;52;21003;-71
2021/09/26 09:13:26;;;;;;;6.50;5.05;;;22.20;73.90;;;;;;2330830;54;20970;-72
2021/09/26 09:16:03;;;;;;;6.65;5.00;;;22.30;74.30;;;;;;2452379;52;20967;-71
2021/09/26 09:19:03;;;;;;;6.28;4.80;;;22.50;74.50;;;;;;2404111;52;21024;-74
2021/09/26 09:21:33;;;;;;;6.10;4.53;;;22.70;74.00;;;;;;2335532;54;20959;-73
2021/09/26 09:24:27;;;;;;;6.25;5.20;;;22.90;74.70;;;;;;2325601;54;21075;-73
2021/09/26 09:26:54;;;;;;;6.28;4.85;;;23.00;74.10;;;;;;2554248;52;20943;-71
2021/09/26 09:29:22;;;;;;;7.15;5.50;;;23.20;74.20;;;;;;2303307;54;22523;-74
2021/09/26 09:31:53;;;;;;;7.28;5.25;;;23.40;74.20;;;;;;2320369;54;20971;-72
2021/09/26 09:34:33;;;;;;;6.80;4.93;;;23.50;73.70;;;;;;2562594;53;20967;-70
2021/09/26 09:37:13;;;;;;;7.07;4.95;;;23.60;73.20;;;;;;2323419;54;20991;-75
2021/09/26 09:39:40;;;;;;;7.12;5.07;;;23.70;72.90;;;;;;2325285;54;20987;-71
2021/09/26 09:42:20;;;;;;;6.82;5.40;;;23.80;73.10;;;;;;2318112;54;21023;-73
2021/09/26 09:44:46;;;;;;;6.65;4.55;;;23.90;72.40;;;;;;2326069;54;21589;-76
2021/09/26 09:47:12;;;;;;;6.70;4.60;;;24.00;72.80;;;;;;2560814;52;21512;-71
2021/09/26 09:49:53;;;;;;;6.40;4.40;;;24.10;72.70;;;;;;2327483;54;21042;-73
2021/09/26 09:52:38;;;;;;;6.68;4.93;;;24.20;72.10;;;;;;2482654;52;20987;-75
2021/09/26 09:55:06;;;;;;;8.80;5.00;;;24.20;71.70;;;;;;2312246;54;21017;-76
2021/09/26 09:57:32;;;;;;;6.55;4.78;;;24.30;72.00;;;;;;2318233;54;21526;-70
2021/09/26 10:00:15;;;;;;;8.32;5.40;;;24.30;71.80;;;;;;2324296;54;21779;-72
2021/09/26 10:02:43;;;;;;;7.60;5.50;;;24.40;71.00;;;;;;2332246;54;20994;-75
2021/09/26 10:05:35;;;;;;;7.10;5.45;;;24.40;71.50;;;;;;2518519;52;20999;-71
2021/09/26 10:08:01;;;;;;;8.88;5.68;;;24.50;70.30;;;;;;2460612;53;21412;-70
2021/09/26 10:10:31;;;;;;;7.90;5.22;;;24.60;70.90;;;;;;2330702;54;21035;-72
2021/09/26 10:13:11;;;;;;;;;;;24.60;70.10;;;;;;2553579;52;20960;-73
2021/09/26 10:15:39;;;;;;;7.37;4.75;;;24.60;69.90;;;;;;2554533;52;20146;-78
2021/09/26 10:18:05;;;;;;;8.10;5.25;;;24.70;71.50;;;;;;2328002;54;21098;-73
2021/09/26 10:20:32;;;;;;;7.12;4.80;;;24.70;70.70;;;;;;2318971;54;20958;-73
2021/09/26 10:22:58;;;;;;;6.87;5.12;;;24.80;71.00;;;;;;2326276;54;20963;-74
2021/09/26 10:25:25;;;;;;;6.03;4.57;;;24.90;70.80;;;;;;2550571;52;20979;-75
2021/09/26 10:27:53;;;;;;;7.25;4.97;;;25.00;71.00;;;;;;2335898;53;20959;-73
2021/09/26 10:30:21;;;;;;;6.93;5.05;;;25.00;70.70;;;;;;2331501;54;21003;-74
2021/09/26 10:32:47;;;;;;;7.35;5.00;;;25.10;70.50;;;;;;2303345;54;21006;-72
2021/09/26 10:35:14;;;;;;;5.93;4.68;;;25.20;70.40;;;;;;2342949;54;20928;-76
2021/09/26 10:37:41;;;;;;;5.82;4.50;;;25.30;70.50;;;;;;2325883;54;20975;-73
2021/09/26 10:40:07;;;;;;;7.10;4.70;;;25.40;70.30;;;;;;2331814;54;21015;-76
2021/09/26 10:42:35;;;;;;;5.80;3.83;;;25.50;70.40;;;;;;2325955;54;20939;-76
2021/09/26 10:45:07;;;;;;;5.35;4.10;;;25.50;70.00;;;;;;2329139;54;20952;-74
2021/09/26 10:47:33;;;;;;;4.87;3.58;;;25.70;69.60;;;;;;2310839;54;21102;-73
2021/09/26 10:50:14;;;;;;;6.18;3.87;;;25.70;69.20;;;;;;2333283;54;21067;-73
2021/09/26 10:52:48;;;;;;;5.03;3.97;;;25.80;67.60;;;;;;2335800;54;20968;-72
2021/09/26 10:55:32;;;;;;;5.30;3.83;;;25.80;67.70;;;;;;2324828;54;20963;-73
2021/09/26 10:58:16;;;;;;;4.90;3.58;;;25.80;67.00;;;;;;2359560;54;21042;-74
2021/09/26 11:00:57;;;;;;;5.70;3.80;;;25.90;67.20;;;;;;2566190;53;21570;-79
2021/09/26 11:04:37;;;;;;;4.60;3.25;;;25.90;66.10;;;;;;2321756;54;21082;-71
2021/09/26 11:07:23;;;;;;;4.50;3.03;;;25.90;66.10;;;;;;2333881;54;21109;-71
2021/09/26 11:09:51;;;;;;;4.82;3.37;;;26.00;66.20;;;;;;2318688;54;20966;-72
2021/09/26 11:19:12;;;;;;;5.10;3.30;;;26.00;66.20;;;;;;2328586;54;20983;-72
2021/09/26 11:22:01;;;;;;;5.18;3.30;;;26.00;66.40;;;;;;2322870;55;21083;-76
2021/09/26 11:24:32;;;;;;;4.72;3.25;;;26.00;64.90;;;;;;2327147;54;21007;-71
2021/09/26 11:27:17;;;;;;;4.40;3.12;;;26.00;65.70;;;;;;2331406;54;20966;-71
2021/09/26 11:30:36;;;;;;;4.18;3.05;;;26.00;66.00;;;;;;2554465;52;21479;-71
2021/09/26 11:33:04;;;;;;;4.50;3.22;;;25.90;64.90;;;;;;2317747;54;20947;-71
2021/09/26 11:35:31;;;;;;;4.85;3.20;;;25.90;65.20;;;;;;2556065;52;21614;-74
2021/09/26 11:37:59;;;;;;;4.62;3.37;;;25.90;65.30;;;;;;2461355;52;20979;-73
2021/09/26 11:40:53;;;;;;;4.62;3.28;;;25.90;65.20;;;;;;2329956;54;21026;-76
2021/09/26 11:43:24;;;;;;;4.18;3.00;;;25.80;64.10;;;;;;2334907;54;20979;-72
2021/09/26 11:45:51;;;;;;;4.25;3.20;;;25.80;64.50;;;;;;2331195;54;21066;-78
2021/09/26 11:48:17;;;;;;;4.00;2.67;;;25.80;64.40;;;;;;2562608;52;21082;-72
2021/09/26 11:50:47;;;;;;;5.05;3.55;;;25.70;64.30;;;;;;2324132;54;20955;-70
2021/09/26 11:53:14;;;;;;;4.25;2.92;;;25.70;63.80;;;;;;2326955;54;21030;-74
2021/09/26 11:55:42;;;;;;;4.25;2.92;;;25.70;64.10;;;;;;2320957;54;20971;-77
2021/09/26 11:58:10;;;;;;;4.43;3.15;;;25.60;64.10;;;;;;2539633;53;21883;-72
2021/09/26 12:00:40;;;;;;;4.60;3.50;;;25.60;64.00;;;;;;2320269;54;21019;-70
2021/09/26 12:03:19;;;;;;;4.85;3.37;;;25.50;63.90;;;;;;2557512;52;21059;-71
2021/09/26 12:05:45;;;;;;;4.37;3.20;;;25.50;63.20;;;;;;2342301;54;20994;-77
2021/09/26 12:08:11;;;;;;;5.50;3.33;;;25.50;63.80;;;;;;2320850;54;20967;-71
2021/09/26 12:10:40;;;;;;;4.55;3.35;;;25.40;64.00;;;;;;2321107;54;20966;-71
2021/09/26 12:13:15;;;;;;;4.57;3.25;;;25.40;64.80;;;;;;2323460;54;21001;-72
2021/09/26 12:15:43;;;;;;;4.80;2.90;;;25.40;63.50;;;;;;2306076;54;20987;-71
2021/09/26 12:18:25;;;;;;;4.72;2.72;;;25.40;64.20;;;;;;2328046;53;21850;-71
2021/09/26 12:21:03;;;;;;;4.03;2.97;;;25.30;64.00;;;;;;2383760;52;21039;-72
2021/09/26 12:25:35;;;;;;;4.82;3.03;;;25.30;63.80;;;;;;2327867;54;21028;-73
2021/09/26 12:28:05;;;;;;;4.60;3.25;;;25.40;64.00;;;;;;2331586;54;20978;-70
2021/09/26 12:31:06;;;;;;;4.28;2.70;;;25.30;63.80;;;;;;2328256;54;21045;-74
2021/09/26 12:33:43;;;;;;;4.82;3.00;;;25.30;64.10;;;;;;2304994;54;20954;-71
2021/09/26 12:36:13;;;;;;;4.00;2.85;;;25.30;63.60;;;;;;2355264;53;21038;-71
2021/09/26 12:38:42;;;;;;;3.58;2.58;;;25.20;64.00;;;;;;2319517;54;21018;-71
2021/09/26 12:41:33;;;;;;;4.18;2.50;;;25.20;64.40;;;;;;2323672;54;21030;-71
2021/09/26 12:44:11;;;;;;;2.83;1.83;;;25.20;64.30;;;;;;2325079;54;21013;-71
2021/09/26 12:46:39;;;;;;;3.50;2.10;;;25.20;64.20;;;;;;2326140;54;21014;-76
2021/09/26 12:49:10;;;;;;;3.05;2.03;;;25.10;64.60;;;;;;2324799;54;21026;-71
2021/09/26 12:51:48;;;;;;;3.53;2.28;;;25.10;64.40;;;;;;2318274;54;21010;-73
2021/09/26 12:54:18;;;;;;;2.83;1.73;;;25.10;64.60;;;;;;2338182;54;21022;-72
2021/09/26 12:56:47;;;;;;;3.85;2.30;;;25.00;64.80;;;;;;2567214;53;20996;-71
2021/09/26 12:59:41;;;;;;;2.90;1.70;;;25.00;64.90;;;;;;2319394;54;21051;-71
2021/09/26 13:02:21;;;;;;;3.58;2.15;;;25.00;64.60;;;;;;2330385;54;20943;-75
2021/09/26 13:05:03;;;;;;;4.22;2.20;;;25.00;64.70;;;;;;2393486;53;21007;-73
2021/09/26 13:07:30;;;;;;;3.83;1.93;;;25.00;64.80;;;;;;2322101;54;20931;-79
2021/09/26 13:11:34;;;;;;;3.67;2.17;;;24.90;65.30;;;;;;2329948;54;21015;-74
2021/09/26 13:15:57;;;;;;;3.55;1.70;;;24.90;64.90;;;;;;2329736;54;21041;-71
2021/09/26 13:18:31;;;;;;;3.08;1.60;;;24.90;65.40;;;;;;2327684;54;21020;-76
2021/09/26 13:21:27;;;;;;;4.40;2.10;;;24.90;65.30;;;;;;2322928;54;20954;-78
2021/09/26 13:24:10;;;;;;;3.90;2.70;;;24.80;65.00;;;;;;2299591;55;20940;-71
2021/09/26 13:26:41;;;;;;;4.43;2.85;;;24.80;65.00;;;;;;2306688;55;20991;-72
2021/09/26 13:29:14;;;;;;;4.15;2.72;;;24.80;65.70;;;;;;2336331;54;20987;-71